createdAt,value
2022-11-13T00:00:16.153Z,58.10
2022-11-13T00:02:36.667Z,58.38
2022-11-13T00:04:57.139Z,58.05
2022-11-13T00:07:18.240Z,58.02
2022-11-13T00:09:40.353Z,58.00
2022-11-13T00:12:00.686Z,58.23
2022-11-13T00:14:20.907Z,58.30
2022-11-13T00:16:41.439Z,58.37
2022-11-13T00:19:01.716Z,58.12
2022-11-13T00:21:24.684Z,58.43
2022-11-13T00:23:45.038Z,58.13
2022-11-13T00:26:09.876Z,58.18
2022-11-13T00:28:32.711Z,58.09
2022-11-13T00:30:58.630Z,57.95
2022-11-13T00:33:37.947Z,57.91
2022-11-13T00:36:14.055Z,58.05
2022-11-13T00:38:35.310Z,57.99
2022-11-13T00:40:55.836Z,58.31
2022-11-13T00:43:15.977Z,58.23
2022-11-13T00:45:37.575Z,58.21
2022-11-13T00:48:00.902Z,57.97
2022-11-13T00:50:21.174Z,58.21
2022-11-13T00:52:41.892Z,58.38
2022-11-13T00:55:01.886Z,58.22
2022-11-13T00:57:24.091Z,58.28
2022-11-13T00:59:44.691Z,58.25
2022-11-13T01:02:04.725Z,58.59
2022-11-13T01:04:29.182Z,58.09
2022-11-13T01:06:49.249Z,58.54
2022-11-13T01:09:09.644Z,58.20
2022-11-13T01:11:35.612Z,58.00
2022-11-13T01:14:02.049Z,58.27
2022-11-13T01:16:24.594Z,57.99
2022-11-13T01:18:45.230Z,58.06
2022-11-13T01:21:08.022Z,58.17
2022-11-13T01:23:28.145Z,57.92
2022-11-13T01:25:48.463Z,58.06
2022-11-13T01:28:10.196Z,58.16
2022-11-13T01:30:30.954Z,57.82
2022-11-13T01:32:51.053Z,57.77
2022-11-13T01:35:11.396Z,57.74
2022-11-13T01:37:32.336Z,57.69
2022-11-13T01:39:57.779Z,58.03
2022-11-13T01:42:18.272Z,57.92
2022-11-13T01:44:56.718Z,57.71
2022-11-13T01:47:20.454Z,57.83
2022-11-13T01:49:50.380Z,57.70
2022-11-13T01:52:20.102Z,57.54
2022-11-13T01:54:51.062Z,57.67
2022-11-13T01:57:13.264Z,57.49
2022-11-13T01:59:41.982Z,57.50
2022-11-13T02:02:02.553Z,57.57
2022-11-13T02:04:24.021Z,57.98
2022-11-13T02:06:51.962Z,57.66
2022-11-13T02:09:14.047Z,57.61
2022-11-13T02:11:34.095Z,57.73
2022-11-13T02:13:54.653Z,57.57
2022-11-13T02:16:16.198Z,57.50
2022-11-13T02:18:38.574Z,57.39
2022-11-13T02:21:06.132Z,57.49
2022-11-13T02:23:54.399Z,57.07
2022-11-13T02:26:16.173Z,57.61
2022-11-13T02:28:36.777Z,57.44
2022-11-13T02:31:00.231Z,57.42
2022-11-13T02:33:27.715Z,57.51
2022-11-13T02:35:50.450Z,57.70
2022-11-13T02:38:10.779Z,57.47
2022-11-13T02:40:33.136Z,57.47
2022-11-13T02:42:53.134Z,57.35
2022-11-13T02:45:13.656Z,57.44
2022-11-13T02:47:36.915Z,57.52
2022-11-13T02:50:00.377Z,57.16
2022-11-13T02:52:20.835Z,57.51
2022-11-13T02:54:41.574Z,57.37
2022-11-13T02:57:01.357Z,57.25
2022-11-13T02:59:21.508Z,57.42
2022-11-13T03:01:41.971Z,57.40
2022-11-13T03:04:05.512Z,57.36
2022-11-13T03:06:28.660Z,57.38
2022-11-13T03:08:48.862Z,57.51
2022-11-13T03:11:13.184Z,57.37
2022-11-13T03:13:33.456Z,57.20
2022-11-13T03:15:55.653Z,57.42
2022-11-13T03:18:16.000Z,57.74
2022-11-13T03:20:37.776Z,57.41
2022-11-13T03:22:57.969Z,57.46
2022-11-13T03:25:18.326Z,57.43
2022-11-13T03:27:38.654Z,57.55
2022-11-13T03:30:15.466Z,57.58
2022-11-13T03:32:35.657Z,57.81
2022-11-13T03:34:57.978Z,57.79
2022-11-13T03:37:18.271Z,57.68
2022-11-13T03:39:38.511Z,57.72
2022-11-13T03:41:58.571Z,57.81
2022-11-13T03:44:18.641Z,57.79
2022-11-13T03:46:39.152Z,58.10
2022-11-13T03:49:02.300Z,57.84
2022-11-13T03:51:22.364Z,57.81
2022-11-13T03:53:43.338Z,57.65
2022-11-13T03:56:03.815Z,58.21
2022-11-13T03:58:24.004Z,57.76
2022-11-13T04:00:45.053Z,58.15
2022-11-13T04:03:05.229Z,57.88
2022-11-13T04:05:26.792Z,57.88
2022-11-13T04:07:47.607Z,57.87
2022-11-13T04:10:07.974Z,57.95
2022-11-13T04:12:27.922Z,58.12
2022-11-13T04:15:00.703Z,57.91
2022-11-13T04:17:23.676Z,57.91
2022-11-13T04:19:44.014Z,57.80
2022-11-13T04:22:04.345Z,57.81
2022-11-13T04:24:27.530Z,57.76
2022-11-13T04:26:47.619Z,57.83
2022-11-13T04:29:10.211Z,57.82
2022-11-13T04:31:30.398Z,57.80
2022-11-13T04:33:51.031Z,57.79
2022-11-13T04:36:11.288Z,57.70
2022-11-13T04:38:31.872Z,57.78
2022-11-13T04:41:12.176Z,57.72
2022-11-13T04:43:32.598Z,58.03
2022-11-13T04:45:56.237Z,57.84
2022-11-13T04:48:16.567Z,57.94
2022-11-13T04:50:38.487Z,57.50
2022-11-13T04:52:58.842Z,57.95
2022-11-13T04:55:19.423Z,57.96
2022-11-13T04:57:40.396Z,58.05
2022-11-13T05:00:00.726Z,58.00
2022-11-13T05:02:22.763Z,57.91
2022-11-13T05:04:46.478Z,57.62
2022-11-13T05:07:06.531Z,58.01
2022-11-13T05:09:32.571Z,57.61
2022-11-13T05:11:52.833Z,57.59
2022-11-13T05:14:14.703Z,57.56
2022-11-13T05:16:37.393Z,57.82
2022-11-13T05:18:59.452Z,57.79
2022-11-13T05:21:19.772Z,57.69
2022-11-13T05:23:47.733Z,57.67
2022-11-13T05:26:13.602Z,57.80
2022-11-13T05:28:33.942Z,57.53
2022-11-13T05:30:56.940Z,57.41
2022-11-13T05:33:17.300Z,57.42
2022-11-13T05:35:39.356Z,57.70
2022-11-13T05:38:03.249Z,57.65
2022-11-13T05:40:30.683Z,57.46
2022-11-13T05:42:50.603Z,57.79
2022-11-13T05:45:12.238Z,57.82
2022-11-13T05:47:33.058Z,57.49
2022-11-13T05:49:54.128Z,57.74
2022-11-13T05:52:14.165Z,57.86
2022-11-13T05:54:34.650Z,57.70
2022-11-13T05:56:54.828Z,57.89
2022-11-13T05:59:15.327Z,57.31
2022-11-13T06:01:38.207Z,57.63
2022-11-13T06:04:01.957Z,57.44
2022-11-13T06:06:24.801Z,57.85
2022-11-13T06:08:49.234Z,57.40
2022-11-13T06:11:15.482Z,57.51
2022-11-13T06:13:36.325Z,57.47
2022-11-13T06:18:49.587Z,57.61
2022-11-13T06:21:17.324Z,57.44
2022-11-13T06:23:39.362Z,57.94
2022-11-13T06:26:08.741Z,57.82
2022-11-13T06:28:29.083Z,57.84
2022-11-13T06:30:49.669Z,57.72
2022-11-13T06:33:10.246Z,57.63
2022-11-13T06:35:30.839Z,57.70
2022-11-13T06:37:51.125Z,57.76
2022-11-13T06:40:15.019Z,57.40
2022-11-13T06:42:35.477Z,57.83
2022-11-13T06:44:56.018Z,57.53
2022-11-13T06:47:16.314Z,57.62
2022-11-13T06:49:37.164Z,57.82
2022-11-13T06:51:57.346Z,57.91
2022-11-13T06:54:17.588Z,57.77
2022-11-13T06:56:43.810Z,57.80
2022-11-13T06:59:08.436Z,58.07
2022-11-13T07:01:31.663Z,57.91
2022-11-13T07:03:51.978Z,57.91
2022-11-13T07:06:14.693Z,57.68
2022-11-13T07:08:36.030Z,57.74
2022-11-13T07:11:00.080Z,57.97
2022-11-13T07:13:21.114Z,58.15
2022-11-13T07:15:44.658Z,57.99
2022-11-13T07:18:07.561Z,57.78
2022-11-13T07:20:28.098Z,57.85
2022-11-13T07:22:58.058Z,58.26
2022-11-13T07:25:25.998Z,57.98
2022-11-13T07:27:47.598Z,58.19
2022-11-13T07:30:11.159Z,57.95
2022-11-13T07:32:31.471Z,58.26
2022-11-13T07:34:51.796Z,58.01
2022-11-13T07:37:11.877Z,58.03
2022-11-13T07:39:32.870Z,58.03
2022-11-13T07:41:53.346Z,57.70
2022-11-13T07:44:22.014Z,57.83
2022-11-13T07:46:54.079Z,57.87
2022-11-13T07:49:14.644Z,57.78
2022-11-13T07:51:42.266Z,58.01
2022-11-13T07:54:02.560Z,58.06
2022-11-13T07:56:23.473Z,58.01
2022-11-13T07:58:43.683Z,58.42
2022-11-13T08:01:05.492Z,58.56
2022-11-13T08:03:28.074Z,57.80
2022-11-13T08:05:51.317Z,58.30
2022-11-13T08:08:13.975Z,58.25
2022-11-13T08:10:36.435Z,58.41
2022-11-13T08:13:06.286Z,58.39
2022-11-13T08:15:27.265Z,58.12
2022-11-13T08:18:00.034Z,58.25
2022-11-13T08:20:19.937Z,58.61
2022-11-13T08:22:43.491Z,58.34
2022-11-13T08:25:04.057Z,58.27
2022-11-13T08:27:25.469Z,58.21
2022-11-13T08:29:45.811Z,58.46
2022-11-13T08:32:06.170Z,58.69
2022-11-13T08:34:28.856Z,58.59
2022-11-13T08:36:55.630Z,58.95
2022-11-13T08:39:20.662Z,58.94
2022-11-13T08:41:40.869Z,58.60
2022-11-13T08:44:01.301Z,58.76
2022-11-13T08:46:21.624Z,58.65
2022-11-13T08:48:41.858Z,58.72
2022-11-13T08:51:01.811Z,58.93
2022-11-13T08:53:23.129Z,58.89
2022-11-13T08:55:48.816Z,58.75
2022-11-13T08:58:09.235Z,58.92
2022-11-13T09:00:33.837Z,59.26
2022-11-13T09:03:01.643Z,59.26
2022-11-13T09:05:28.224Z,59.23
2022-11-13T09:07:48.649Z,58.90
2022-11-13T09:10:08.983Z,59.05
2022-11-13T09:12:29.701Z,58.59
2022-11-13T09:14:50.073Z,58.95
2022-11-13T09:17:10.773Z,58.96
2022-11-13T09:19:38.609Z,58.81
2022-11-13T09:22:00.273Z,58.97
2022-11-13T09:24:20.660Z,58.87
2022-11-13T09:26:41.166Z,59.05
2022-11-13T09:29:01.852Z,58.88
2022-11-13T09:31:25.662Z,58.82
2022-11-13T09:33:46.150Z,58.88
2022-11-13T09:36:17.788Z,58.90
2022-11-13T09:38:38.614Z,58.71
2022-11-13T09:41:08.090Z,59.05
2022-11-13T09:43:49.354Z,58.86
2022-11-13T09:46:39.831Z,59.06
2022-11-13T09:49:13.081Z,59.19
2022-11-13T09:51:52.120Z,59.22
2022-11-13T09:54:15.201Z,59.10
2022-11-13T09:56:47.879Z,59.31
2022-11-13T09:59:46.709Z,59.47
2022-11-13T10:02:38.013Z,59.56
2022-11-13T10:05:03.932Z,59.34
2022-11-13T10:07:33.152Z,59.78
2022-11-13T10:10:13.703Z,59.63
2022-11-13T10:12:34.222Z,59.40
2022-11-13T10:14:57.139Z,59.81
2022-11-13T10:18:02.132Z,60.51
2022-11-13T10:20:25.772Z,59.90
2022-11-13T10:22:59.740Z,59.72
2022-11-13T10:25:29.733Z,59.96
2022-11-13T10:28:15.837Z,60.23
2022-11-13T10:30:42.580Z,60.07
2022-11-13T10:33:08.720Z,60.24
2022-11-13T10:35:38.182Z,60.16
2022-11-13T10:38:08.315Z,60.42
2022-11-13T10:40:33.029Z,60.40
2022-11-13T10:42:56.238Z,60.12
2022-11-13T10:45:18.608Z,60.41
2022-11-13T10:48:03.907Z,60.36
2022-11-13T10:50:30.548Z,60.51
2022-11-13T10:52:53.981Z,60.12
2022-11-13T10:55:40.204Z,60.37
2022-11-13T10:58:06.181Z,60.45
2022-11-13T11:00:38.896Z,60.94
2022-11-13T11:02:59.277Z,60.88
2022-11-13T11:05:23.049Z,61.56
2022-11-13T11:07:43.317Z,61.77
2022-11-13T11:10:06.920Z,62.04
2022-11-13T11:12:30.889Z,62.39
2022-11-13T11:15:15.663Z,63.60
2022-11-13T11:17:58.146Z,63.61
2022-11-13T11:20:48.352Z,63.88
2022-11-13T11:23:21.297Z,62.70
2022-11-13T11:25:48.851Z,62.98
2022-11-13T11:28:28.561Z,62.70
2022-11-13T11:31:21.785Z,63.09
2022-11-13T11:33:53.648Z,61.82
2022-11-13T11:36:36.080Z,61.75
2022-11-13T11:39:10.052Z,60.82
2022-11-13T11:41:38.069Z,60.62
2022-11-13T11:44:26.601Z,60.41
2022-11-13T11:46:49.917Z,60.14
2022-11-13T11:49:11.034Z,60.02
2022-11-13T11:52:00.999Z,59.90
2022-11-13T11:54:41.725Z,59.79
2022-11-13T11:57:16.857Z,59.51
2022-11-13T12:00:02.000Z,59.59
2022-11-13T12:02:50.547Z,59.62
2022-11-13T12:05:26.435Z,59.30
2022-11-13T12:08:08.614Z,59.05
2022-11-13T12:11:26.317Z,58.79
2022-11-13T12:14:07.078Z,58.43
2022-11-13T12:16:41.178Z,58.18
2022-11-13T12:19:14.832Z,57.64
2022-11-13T12:21:35.140Z,57.59
2022-11-13T12:24:14.027Z,57.14
2022-11-13T12:26:47.187Z,56.40
2022-11-13T12:30:00.871Z,55.95
2022-11-13T12:33:04.889Z,55.70
2022-11-13T12:35:26.775Z,55.72
2022-11-13T12:38:10.786Z,54.90
2022-11-13T12:40:46.685Z,54.96
2022-11-13T12:43:39.974Z,54.92
2022-11-13T12:46:08.791Z,54.88
2022-11-13T12:48:43.806Z,54.13
2022-11-13T12:51:13.436Z,54.11
2022-11-13T12:53:57.000Z,53.47
2022-11-13T12:56:20.402Z,53.61
2022-11-13T12:59:09.543Z,52.74
2022-11-13T13:01:42.811Z,52.87
2022-11-13T13:04:13.664Z,52.83
2022-11-13T13:07:08.266Z,51.83
2022-11-13T13:09:43.833Z,51.62
2022-11-13T13:12:38.650Z,51.85
2022-11-13T13:15:18.418Z,51.98
2022-11-13T13:17:42.472Z,52.39
2022-11-13T13:20:07.046Z,52.71
2022-11-13T13:22:30.794Z,52.85
2022-11-13T13:25:04.672Z,52.32
2022-11-13T13:27:27.586Z,52.74
2022-11-13T13:29:49.450Z,52.74
2022-11-13T13:32:24.860Z,52.79
2022-11-13T13:35:07.160Z,52.96
2022-11-13T13:37:43.331Z,52.83
2022-11-13T13:40:09.851Z,53.34
2022-11-13T13:43:09.661Z,53.23
2022-11-13T13:45:54.769Z,52.63
2022-11-13T13:48:20.632Z,53.34
2022-11-13T13:50:46.923Z,53.35
2022-11-13T13:53:08.924Z,53.37
2022-11-13T13:55:33.478Z,53.29
2022-11-13T13:58:04.216Z,53.44
2022-11-13T14:00:29.104Z,53.28
2022-11-13T14:02:52.195Z,53.02
2022-11-13T14:05:27.691Z,53.08
2022-11-13T14:07:47.817Z,53.01
2022-11-13T14:10:38.112Z,52.69
2022-11-13T14:12:58.733Z,53.00
2022-11-13T14:15:35.709Z,53.02
2022-11-13T14:18:17.281Z,53.09
2022-11-13T14:20:52.630Z,51.70
2022-11-13T14:23:19.401Z,52.79
2022-11-13T14:25:44.771Z,52.78
2022-11-13T14:28:15.866Z,52.67
2022-11-13T14:30:36.191Z,52.71
2022-11-13T14:33:03.143Z,52.42
2022-11-13T14:35:26.687Z,52.73
2022-11-13T14:37:47.229Z,52.51
2022-11-13T14:40:31.288Z,52.31
2022-11-13T14:42:56.230Z,52.33
2022-11-13T14:45:25.154Z,52.06
2022-11-13T14:48:00.371Z,52.58
2022-11-13T14:50:21.037Z,52.61
2022-11-13T14:52:41.604Z,52.70
2022-11-13T14:55:20.069Z,52.35
2022-11-13T14:57:50.410Z,52.48
2022-11-13T15:00:16.486Z,52.38
2022-11-13T15:02:37.825Z,51.88
2022-11-13T15:05:00.665Z,52.10
2022-11-13T15:07:33.300Z,51.53
2022-11-13T15:09:53.825Z,51.92
2022-11-13T15:12:13.807Z,51.92
2022-11-13T15:14:39.756Z,51.47
2022-11-13T15:16:59.828Z,52.05
2022-11-13T15:19:42.728Z,51.59
2022-11-13T15:22:26.084Z,51.64
2022-11-13T15:24:43.773Z,51.78
2022-11-13T15:27:04.373Z,51.72
2022-11-13T15:29:24.663Z,51.85
2022-11-13T15:31:46.950Z,51.75
2022-11-13T15:34:13.262Z,51.63
2022-11-13T15:36:33.545Z,51.88
2022-11-13T15:38:53.605Z,51.73
2022-11-13T15:41:17.659Z,51.57
2022-11-13T15:43:44.088Z,51.58
2022-11-13T15:46:04.365Z,51.63
2022-11-13T15:48:24.658Z,51.50
2022-11-13T15:50:46.801Z,51.50
2022-11-13T15:53:12.258Z,51.55
2022-11-13T15:55:33.144Z,51.51
2022-11-13T15:58:00.629Z,51.27
2022-11-13T16:00:28.966Z,51.12
2022-11-13T16:02:50.780Z,51.44
2022-11-13T16:05:10.974Z,51.36
2022-11-13T16:07:31.664Z,51.46
2022-11-13T16:09:59.520Z,50.96
2022-11-13T16:12:22.178Z,51.44
2022-11-13T16:14:43.002Z,51.47
2022-11-13T16:17:05.739Z,51.41
2022-11-13T16:19:34.865Z,51.37
2022-11-13T16:21:55.456Z,51.49
2022-11-13T16:24:17.968Z,51.41
2022-11-13T16:26:47.791Z,51.35
2022-11-13T16:29:34.501Z,51.13
2022-11-13T16:31:54.547Z,51.33
2022-11-13T16:34:14.574Z,51.51
2022-11-13T16:36:41.176Z,51.41
2022-11-13T16:39:06.422Z,51.25
2022-11-13T16:41:26.915Z,51.45
2022-11-13T16:43:47.128Z,51.50
2022-11-13T16:46:31.295Z,51.14
2022-11-13T16:48:51.396Z,51.35
2022-11-13T16:51:11.800Z,51.38
2022-11-13T16:53:32.000Z,51.43
2022-11-13T16:55:52.689Z,51.46
2022-11-13T16:58:14.193Z,51.44
2022-11-13T17:00:34.410Z,51.60
2022-11-13T17:02:54.966Z,51.56
2022-11-13T17:05:16.752Z,51.59
2022-11-13T17:07:36.944Z,51.60
2022-11-13T17:10:24.032Z,51.64
2022-11-13T17:12:38.768Z,51.74
2022-11-13T17:14:58.779Z,51.77
2022-11-13T17:17:18.954Z,51.83
2022-11-13T17:19:57.754Z,51.85
2022-11-13T17:22:18.091Z,51.84
2022-11-13T17:24:38.871Z,52.03
2022-11-13T17:26:59.251Z,52.05
2022-11-13T17:29:19.596Z,52.11
2022-11-13T17:31:39.966Z,52.28
2022-11-13T17:34:00.168Z,52.29
2022-11-13T17:36:21.875Z,52.33
2022-11-13T17:38:42.546Z,52.32
2022-11-13T17:41:08.871Z,52.32
2022-11-13T17:43:29.053Z,52.51
2022-11-13T17:45:51.667Z,52.59
2022-11-13T17:48:12.328Z,52.52
2022-11-13T17:50:33.174Z,52.52
2022-11-13T17:52:57.418Z,52.58
2022-11-13T17:55:17.734Z,52.56
2022-11-13T17:57:37.967Z,52.69
2022-11-13T17:59:58.424Z,52.58
2022-11-13T18:02:18.497Z,52.80
2022-11-13T18:04:38.765Z,52.67
2022-11-13T18:07:02.468Z,52.67
2022-11-13T18:09:22.817Z,52.71
2022-11-13T18:11:45.815Z,52.70
2022-11-13T18:14:06.499Z,52.75
2022-11-13T18:16:34.601Z,52.83
2022-11-13T18:18:56.797Z,52.85
2022-11-13T18:21:26.710Z,52.72
2022-11-13T18:23:47.214Z,52.73
2022-11-13T18:26:10.542Z,52.68
2022-11-13T18:28:37.727Z,52.77
2022-11-13T18:31:05.451Z,52.78
2022-11-13T18:33:26.003Z,52.72
2022-11-13T18:35:46.788Z,52.86
2022-11-13T18:38:06.883Z,52.83
2022-11-13T18:40:27.289Z,52.76
2022-11-13T18:42:50.039Z,52.69
2022-11-13T18:45:16.461Z,52.82
2022-11-13T18:48:03.142Z,52.80
2022-11-13T18:50:23.960Z,52.81
2022-11-13T18:52:44.229Z,52.76
2022-11-13T18:55:05.427Z,52.76
2022-11-13T18:57:25.829Z,52.66
2022-11-13T18:59:51.893Z,52.94
2022-11-13T19:02:13.207Z,52.69
2022-11-13T19:04:34.875Z,52.76
2022-11-13T19:06:57.246Z,52.56
2022-11-13T19:09:18.636Z,52.95
2022-11-13T19:11:39.416Z,52.84
2022-11-13T19:14:02.723Z,53.14
2022-11-13T19:16:34.756Z,52.81
2022-11-13T19:18:57.210Z,52.79
2022-11-13T19:21:19.091Z,52.89
2022-11-13T19:23:40.102Z,52.67
2022-11-13T19:26:01.085Z,52.79
2022-11-13T19:28:24.984Z,52.63
2022-11-13T19:30:47.590Z,52.64
2022-11-13T19:33:08.247Z,52.42
2022-11-13T19:35:28.702Z,52.68
2022-11-13T19:37:58.454Z,52.31
2022-11-13T19:40:19.491Z,52.28
2022-11-13T19:42:41.999Z,52.46
2022-11-13T19:45:02.489Z,52.43
2022-11-13T19:47:22.855Z,52.61
2022-11-13T19:49:43.363Z,52.32
2022-11-13T19:52:03.343Z,52.52
2022-11-13T19:54:25.714Z,52.48
2022-11-13T19:56:48.371Z,52.34
2022-11-13T19:59:11.606Z,52.47
2022-11-13T20:01:32.941Z,52.20
2022-11-13T20:03:58.589Z,52.23
2022-11-13T20:06:19.325Z,52.41
2022-11-13T20:08:39.716Z,52.51
2022-11-13T20:11:10.188Z,52.30
2022-11-13T20:13:36.512Z,52.55
2022-11-13T20:15:57.163Z,52.28
2022-11-13T20:18:17.495Z,52.37
2022-11-13T20:20:38.066Z,52.57
2022-11-13T20:22:58.431Z,52.37
2022-11-13T20:25:18.385Z,52.58
2022-11-13T20:27:41.827Z,52.47
2022-11-13T20:30:05.051Z,52.28
2022-11-13T20:32:25.776Z,52.56
2022-11-13T20:34:46.499Z,52.60
2022-11-13T20:37:06.738Z,52.83
2022-11-13T20:39:31.886Z,52.80
2022-11-13T20:41:52.818Z,52.91
2022-11-13T20:44:15.767Z,52.85
2022-11-13T20:46:35.923Z,53.01
2022-11-13T20:48:57.417Z,52.89
2022-11-13T20:51:28.543Z,53.08
2022-11-13T20:53:52.118Z,52.80
2022-11-13T20:56:20.259Z,52.87
2022-11-13T20:58:42.097Z,53.00
2022-11-13T21:01:04.617Z,52.84
2022-11-13T21:03:24.851Z,52.99
2022-11-13T21:05:45.301Z,53.28
2022-11-13T21:08:05.686Z,53.19
2022-11-13T21:10:26.119Z,52.97
2022-11-13T21:12:46.667Z,53.17
2022-11-13T21:15:07.697Z,53.24
2022-11-13T21:17:30.796Z,53.01
2022-11-13T21:19:56.377Z,53.24
2022-11-13T21:22:19.581Z,53.20
2022-11-13T21:24:39.785Z,53.29
2022-11-13T21:27:00.994Z,53.26
2022-11-13T21:29:23.149Z,53.28
2022-11-13T21:31:43.498Z,53.19
2022-11-13T21:34:04.018Z,52.90
2022-11-13T21:36:26.782Z,53.38
2022-11-13T21:38:50.123Z,53.44
2022-11-13T21:41:21.489Z,53.47
2022-11-13T21:43:43.553Z,53.47
2022-11-13T21:46:07.060Z,53.55
2022-11-13T21:48:32.864Z,53.18
2022-11-13T21:50:53.445Z,53.29
2022-11-13T21:53:13.824Z,53.39
2022-11-13T21:55:33.854Z,53.12
2022-11-13T21:57:54.443Z,53.25
2022-11-13T22:00:15.444Z,53.59
2022-11-13T22:02:36.224Z,53.38
2022-11-13T22:04:56.659Z,53.35
2022-11-13T22:07:17.534Z,53.43
2022-11-13T22:09:41.799Z,53.35
2022-11-13T22:12:02.642Z,53.32
2022-11-13T22:14:22.826Z,53.47
2022-11-13T22:16:45.403Z,53.42
2022-11-13T22:19:09.463Z,53.50
2022-11-13T22:21:30.919Z,53.32
2022-11-13T22:23:51.650Z,53.57
2022-11-13T22:26:14.834Z,53.41
2022-11-13T22:28:36.968Z,53.40
2022-11-13T22:30:57.402Z,53.45
2022-11-13T22:33:17.678Z,53.37
2022-11-13T22:35:37.940Z,53.52
2022-11-13T22:37:58.514Z,53.62
2022-11-13T22:40:27.913Z,53.58
2022-11-13T22:42:48.091Z,53.63
2022-11-13T22:45:22.913Z,53.68
2022-11-13T22:47:45.060Z,53.64
2022-11-13T22:50:08.156Z,53.46
2022-11-13T22:52:28.314Z,53.45
2022-11-13T22:54:48.810Z,53.50
2022-11-13T22:57:09.099Z,53.71
2022-11-13T22:59:29.507Z,53.53
2022-11-13T23:01:49.742Z,53.81
2022-11-13T23:04:13.465Z,53.57
2022-11-13T23:06:43.047Z,53.57
2022-11-13T23:09:04.613Z,53.64
2022-11-13T23:11:27.225Z,53.64
2022-11-13T23:13:56.236Z,53.68
2022-11-13T23:16:17.480Z,53.83
2022-11-13T23:18:38.380Z,53.75
2022-11-13T23:20:59.298Z,53.93
2022-11-13T23:23:22.437Z,53.85
2022-11-13T23:25:43.304Z,53.79
2022-11-13T23:28:08.343Z,53.61
2022-11-13T23:30:29.433Z,53.58
2022-11-13T23:32:49.528Z,53.68
2022-11-13T23:35:09.697Z,53.96
2022-11-13T23:37:32.498Z,53.91
2022-11-13T23:39:52.949Z,53.98
2022-11-13T23:42:13.462Z,53.81
2022-11-13T23:44:33.843Z,53.93
2022-11-13T23:46:56.533Z,53.85
2022-11-13T23:49:16.763Z,53.96
2022-11-13T23:51:36.851Z,53.92
2022-11-13T23:53:57.484Z,53.92
2022-11-13T23:56:18.074Z,53.94
2022-11-13T23:58:42.681Z,53.97
